sensor_id;sensor_type;location;lat;lon;timestamp;P1;durP1;ratioP1;P2;durP2;ratioP2
48524;SDS011;34316;51.514;-0.178;2023-04-25T00:00:28;4.65;;;3.00;;
48524;SDS011;34316;51.514;-0.178;2023-04-25T00:02:30;6.50;;;3.22;;
48524;SDS011;34316;51.514;-0.178;2023-04-25T00:04:34;3.55;;;2.70;;
48524;SDS011;34316;51.514;-0.178;2023-04-25T00:06:36;5.95;;;3.60;;
48524;SDS011;34316;51.514;-0.178;2023-04-25T00:08:38;4.85;;;2.95;;
48524;SDS011;34316;51.514;-0.178;2023-04-25T00:10:40;5.90;;;3.40;;
48524;SDS011;34316;51.514;-0.178;2023-04-25T00:12:41;5.63;;;3.28;;
48524;SDS011;34316;51.514;-0.178;2023-04-25T00:14:43;4.05;;;3.28;;
48524;SDS011;34316;51.514;-0.178;2023-04-25T00:16:46;4.10;;;3.30;;
48524;SDS011;34316;51.514;-0.178;2023-04-25T00:18:49;4.97;;;3.67;;
48524;SDS011;34316;51.514;-0.178;2023-04-25T00:20:55;8.95;;;3.60;;
48524;SDS011;34316;51.514;-0.178;2023-04-25T00:22:57;4.32;;;3.72;;
48524;SDS011;34316;51.514;-0.178;2023-04-25T00:24:58;3.72;;;3.13;;
48524;SDS011;34316;51.514;-0.178;2023-04-25T00:27:01;3.90;;;3.20;;
48524;SDS011;34316;51.514;-0.178;2023-04-25T00:29:03;4.38;;;3.13;;
48524;SDS011;34316;51.514;-0.178;2023-04-25T00:31:04;5.20;;;3.20;;
48524;SDS011;34316;51.514;-0.178;2023-04-25T00:33:06;3.65;;;2.80;;
48524;SDS011;34316;51.514;-0.178;2023-04-25T00:35:09;3.42;;;3.00;;
48524;SDS011;34316;51.514;-0.178;2023-04-25T00:37:11;4.82;;;3.47;;
48524;SDS011;34316;51.514;-0.178;2023-04-25T00:39:12;5.43;;;3.72;;
48524;SDS011;34316;51.514;-0.178;2023-04-25T00:41:14;6.18;;;3.55;;
48524;SDS011;34316;51.514;-0.178;2023-04-25T00:43:16;3.80;;;3.35;;
48524;SDS011;34316;51.514;-0.178;2023-04-25T00:45:18;4.43;;;3.40;;
48524;SDS011;34316;51.514;-0.178;2023-04-25T00:47:20;4.88;;;3.78;;
48524;SDS011;34316;51.514;-0.178;2023-04-25T00:49:22;5.32;;;3.70;;
48524;SDS011;34316;51.514;-0.178;2023-04-25T00:51:23;6.13;;;4.13;;
48524;SDS011;34316;51.514;-0.178;2023-04-25T00:53:27;4.60;;;3.40;;
48524;SDS011;34316;51.514;-0.178;2023-04-25T00:55:29;5.35;;;4.13;;
48524;SDS011;34316;51.514;-0.178;2023-04-25T00:57:32;5.28;;;3.92;;
48524;SDS011;34316;51.514;-0.178;2023-04-25T00:59:35;5.55;;;3.97;;
48524;SDS011;34316;51.514;-0.178;2023-04-25T01:01:37;4.83;;;4.30;;
48524;SDS011;34316;51.514;-0.178;2023-04-25T01:03:40;5.03;;;4.53;;
48524;SDS011;34316;51.514;-0.178;2023-04-25T01:05:42;5.95;;;4.90;;
48524;SDS011;34316;51.514;-0.178;2023-04-25T01:07:44;6.43;;;4.95;;
48524;SDS011;34316;51.514;-0.178;2023-04-25T01:09:46;8.13;;;5.65;;
48524;SDS011;34316;51.514;-0.178;2023-04-25T01:11:48;7.38;;;5.82;;
48524;SDS011;34316;51.514;-0.178;2023-04-25T01:13:50;7.30;;;6.30;;
48524;SDS011;34316;51.514;-0.178;2023-04-25T01:15:52;11.27;;;6.65;;
48524;SDS011;34316;51.514;-0.178;2023-04-25T01:17:54;7.72;;;5.97;;
48524;SDS011;34316;51.514;-0.178;2023-04-25T01:19:56;9.50;;;6.57;;
48524;SDS011;34316;51.514;-0.178;2023-04-25T01:21:58;7.65;;;6.80;;
48524;SDS011;34316;51.514;-0.178;2023-04-25T01:24:00;7.50;;;6.47;;
48524;SDS011;34316;51.514;-0.178;2023-04-25T01:26:02;7.57;;;6.28;;
48524;SDS011;34316;51.514;-0.178;2023-04-25T01:28:04;7.00;;;5.50;;
48524;SDS011;34316;51.514;-0.178;2023-04-25T01:30:06;13.23;;;6.90;;
48524;SDS011;34316;51.514;-0.178;2023-04-25T01:32:08;8.30;;;6.28;;
48524;SDS011;34316;51.514;-0.178;2023-04-25T01:34:10;8.20;;;6.50;;
48524;SDS011;34316;51.514;-0.178;2023-04-25T01:36:12;8.00;;;6.53;;
48524;SDS011;34316;51.514;-0.178;2023-04-25T01:38:14;9.38;;;6.75;;
48524;SDS011;34316;51.514;-0.178;2023-04-25T01:40:16;9.88;;;6.18;;
48524;SDS011;34316;51.514;-0.178;2023-04-25T01:42:19;8.27;;;6.05;;
48524;SDS011;34316;51.514;-0.178;2023-04-25T01:44:21;8.32;;;7.18;;
48524;SDS011;34316;51.514;-0.178;2023-04-25T01:46:23;7.63;;;6.38;;
48524;SDS011;34316;51.514;-0.178;2023-04-25T01:48:25;9.48;;;6.78;;
48524;SDS011;34316;51.514;-0.178;2023-04-25T01:50:26;8.43;;;6.88;;
48524;SDS011;34316;51.514;-0.178;2023-04-25T01:52:28;9.60;;;7.18;;
48524;SDS011;34316;51.514;-0.178;2023-04-25T01:54:30;9.38;;;6.85;;
48524;SDS011;34316;51.514;-0.178;2023-04-25T01:56:32;11.18;;;7.53;;
48524;SDS011;34316;51.514;-0.178;2023-04-25T01:58:34;8.82;;;7.07;;
48524;SDS011;34316;51.514;-0.178;2023-04-25T02:00:36;8.13;;;6.30;;
48524;SDS011;34316;51.514;-0.178;2023-04-25T02:02:42;9.02;;;7.15;;
48524;SDS011;34316;51.514;-0.178;2023-04-25T02:04:44;8.80;;;7.55;;
48524;SDS011;34316;51.514;-0.178;2023-04-25T02:06:45;6.95;;;6.20;;
48524;SDS011;34316;51.514;-0.178;2023-04-25T02:08:47;6.75;;;5.85;;
48524;SDS011;34316;51.514;-0.178;2023-04-25T02:10:49;7.63;;;5.85;;
48524;SDS011;34316;51.514;-0.178;2023-04-25T02:12:51;7.43;;;6.43;;
48524;SDS011;34316;51.514;-0.178;2023-04-25T02:14:52;9.35;;;6.22;;
48524;SDS011;34316;51.514;-0.178;2023-04-25T02:16:54;6.97;;;6.25;;
48524;SDS011;34316;51.514;-0.178;2023-04-25T02:18:56;9.48;;;5.80;;
48524;SDS011;34316;51.514;-0.178;2023-04-25T02:20:58;8.23;;;5.90;;
48524;SDS011;34316;51.514;-0.178;2023-04-25T02:23:00;7.97;;;5.82;;
48524;SDS011;34316;51.514;-0.178;2023-04-25T02:25:02;8.95;;;5.93;;
48524;SDS011;34316;51.514;-0.178;2023-04-25T02:27:05;6.20;;;5.28;;
48524;SDS011;34316;51.514;-0.178;2023-04-25T02:29:07;7.45;;;5.90;;
48524;SDS011;34316;51.514;-0.178;2023-04-25T02:31:09;6.07;;;5.35;;
48524;SDS011;34316;51.514;-0.178;2023-04-25T02:33:10;5.97;;;5.38;;
48524;SDS011;34316;51.514;-0.178;2023-04-25T02:35:12;6.47;;;5.55;;
48524;SDS011;34316;51.514;-0.178;2023-04-25T02:37:14;6.70;;;5.80;;
48524;SDS011;34316;51.514;-0.178;2023-04-25T02:39:16;6.75;;;5.82;;
48524;SDS011;34316;51.514;-0.178;2023-04-25T02:41:18;6.93;;;5.50;;
48524;SDS011;34316;51.514;-0.178;2023-04-25T02:43:19;6.47;;;5.78;;
48524;SDS011;34316;51.514;-0.178;2023-04-25T02:45:21;14.30;;;8.90;;
48524;SDS011;34316;51.514;-0.178;2023-04-25T02:47:23;26.48;;;16.25;;
48524;SDS011;34316;51.514;-0.178;2023-04-25T02:49:25;14.10;;;10.30;;
48524;SDS011;34316;51.514;-0.178;2023-04-25T02:51:27;20.85;;;15.10;;
48524;SDS011;34316;51.514;-0.178;2023-04-25T02:53:28;10.07;;;7.07;;
48524;SDS011;34316;51.514;-0.178;2023-04-25T02:55:30;7.40;;;5.35;;
48524;SDS011;34316;51.514;-0.178;2023-04-25T02:57:32;6.53;;;5.60;;
48524;SDS011;34316;51.514;-0.178;2023-04-25T02:59:33;7.10;;;5.78;;
48524;SDS011;34316;51.514;-0.178;2023-04-25T03:01:35;7.15;;;5.65;;
48524;SDS011;34316;51.514;-0.178;2023-04-25T03:03:37;6.78;;;5.63;;
48524;SDS011;34316;51.514;-0.178;2023-04-25T03:05:38;9.27;;;6.35;;
48524;SDS011;34316;51.514;-0.178;2023-04-25T03:07:40;8.57;;;6.28;;
48524;SDS011;34316;51.514;-0.178;2023-04-25T03:09:42;7.03;;;5.65;;
48524;SDS011;34316;51.514;-0.178;2023-04-25T03:11:44;7.78;;;6.30;;
48524;SDS011;34316;51.514;-0.178;2023-04-25T03:13:45;8.27;;;6.00;;
48524;SDS011;34316;51.514;-0.178;2023-04-25T03:15:47;8.52;;;6.28;;
48524;SDS011;34316;51.514;-0.178;2023-04-25T03:17:49;9.82;;;7.20;;
48524;SDS011;34316;51.514;-0.178;2023-04-25T03:19:50;8.55;;;6.25;;
48524;SDS011;34316;51.514;-0.178;2023-04-25T03:21:52;6.43;;;5.68;;
48524;SDS011;34316;51.514;-0.178;2023-04-25T03:23:54;7.68;;;6.43;;
48524;SDS011;34316;51.514;-0.178;2023-04-25T03:25:56;7.32;;;6.00;;
48524;SDS011;34316;51.514;-0.178;2023-04-25T03:27:58;7.70;;;6.47;;
48524;SDS011;34316;51.514;-0.178;2023-04-25T03:29:59;10.15;;;6.63;;
48524;SDS011;34316;51.514;-0.178;2023-04-25T03:32:01;7.25;;;6.20;;
48524;SDS011;34316;51.514;-0.178;2023-04-25T03:34:03;6.95;;;5.72;;
48524;SDS011;34316;51.514;-0.178;2023-04-25T03:36:04;7.63;;;6.05;;
48524;SDS011;34316;51.514;-0.178;2023-04-25T03:38:06;7.70;;;6.35;;
48524;SDS011;34316;51.514;-0.178;2023-04-25T03:40:08;7.28;;;5.75;;
48524;SDS011;34316;51.514;-0.178;2023-04-25T03:42:10;7.80;;;6.28;;
48524;SDS011;34316;51.514;-0.178;2023-04-25T03:44:12;8.57;;;6.53;;
48524;SDS011;34316;51.514;-0.178;2023-04-25T03:46:13;7.75;;;6.50;;
48524;SDS011;34316;51.514;-0.178;2023-04-25T03:48:15;8.23;;;6.85;;
48524;SDS011;34316;51.514;-0.178;2023-04-25T03:50:17;8.93;;;6.85;;
48524;SDS011;34316;51.514;-0.178;2023-04-25T03:52:19;8.80;;;6.20;;
48524;SDS011;34316;51.514;-0.178;2023-04-25T03:54:21;7.50;;;6.38;;
48524;SDS011;34316;51.514;-0.178;2023-04-25T03:56:22;7.60;;;5.38;;
48524;SDS011;34316;51.514;-0.178;2023-04-25T03:58:24;7.50;;;5.97;;
48524;SDS011;34316;51.514;-0.178;2023-04-25T04:00:25;9.02;;;5.90;;
48524;SDS011;34316;51.514;-0.178;2023-04-25T04:02:27;9.60;;;6.38;;
48524;SDS011;34316;51.514;-0.178;2023-04-25T04:04:29;6.53;;;5.32;;
48524;SDS011;34316;51.514;-0.178;2023-04-25T04:06:31;8.32;;;5.72;;
48524;SDS011;34316;51.514;-0.178;2023-04-25T04:08:34;6.50;;;5.25;;
48524;SDS011;34316;51.514;-0.178;2023-04-25T04:10:36;7.18;;;5.47;;
48524;SDS011;34316;51.514;-0.178;2023-04-25T04:12:38;5.88;;;5.25;;
48524;SDS011;34316;51.514;-0.178;2023-04-25T04:14:39;7.07;;;5.97;;
48524;SDS011;34316;51.514;-0.178;2023-04-25T04:16:41;7.97;;;5.90;;
48524;SDS011;34316;51.514;-0.178;2023-04-25T04:18:43;6.43;;;5.30;;
48524;SDS011;34316;51.514;-0.178;2023-04-25T04:20:44;7.90;;;6.20;;
48524;SDS011;34316;51.514;-0.178;2023-04-25T04:22:46;8.68;;;6.13;;
48524;SDS011;34316;51.514;-0.178;2023-04-25T04:24:48;11.45;;;6.47;;
48524;SDS011;34316;51.514;-0.178;2023-04-25T04:26:51;8.15;;;5.93;;
48524;SDS011;34316;51.514;-0.178;2023-04-25T04:28:53;7.78;;;5.57;;
48524;SDS011;34316;51.514;-0.178;2023-04-25T04:30:55;7.07;;;6.18;;
48524;SDS011;34316;51.514;-0.178;2023-04-25T04:32:57;6.95;;;5.47;;
48524;SDS011;34316;51.514;-0.178;2023-04-25T04:34:59;7.28;;;5.60;;
48524;SDS011;34316;51.514;-0.178;2023-04-25T04:37:01;8.15;;;6.20;;
48524;SDS011;34316;51.514;-0.178;2023-04-25T04:39:02;8.13;;;5.80;;
48524;SDS011;34316;51.514;-0.178;2023-04-25T04:41:06;7.60;;;5.70;;
48524;SDS011;34316;51.514;-0.178;2023-04-25T04:43:08;7.00;;;5.80;;
48524;SDS011;34316;51.514;-0.178;2023-04-25T04:45:11;7.10;;;5.72;;
48524;SDS011;34316;51.514;-0.178;2023-04-25T04:47:14;8.15;;;6.28;;
48524;SDS011;34316;51.514;-0.178;2023-04-25T04:49:15;8.25;;;6.05;;
48524;SDS011;34316;51.514;-0.178;2023-04-25T04:51:17;8.23;;;6.22;;
48524;SDS011;34316;51.514;-0.178;2023-04-25T04:53:19;8.07;;;6.57;;
48524;SDS011;34316;51.514;-0.178;2023-04-25T04:55:20;9.43;;;6.70;;
48524;SDS011;34316;51.514;-0.178;2023-04-25T04:57:22;10.43;;;7.40;;
48524;SDS011;34316;51.514;-0.178;2023-04-25T04:59:23;8.43;;;7.45;;
48524;SDS011;34316;51.514;-0.178;2023-04-25T05:01:25;8.80;;;7.03;;
48524;SDS011;34316;51.514;-0.178;2023-04-25T05:03:27;9.25;;;7.75;;
48524;SDS011;34316;51.514;-0.178;2023-04-25T05:05:29;9.75;;;7.63;;
48524;SDS011;34316;51.514;-0.178;2023-04-25T05:07:31;16.67;;;8.00;;
48524;SDS011;34316;51.514;-0.178;2023-04-25T05:09:33;8.30;;;7.25;;
48524;SDS011;34316;51.514;-0.178;2023-04-25T05:11:34;9.27;;;7.45;;
48524;SDS011;34316;51.514;-0.178;2023-04-25T05:13:36;9.77;;;7.68;;
48524;SDS011;34316;51.514;-0.178;2023-04-25T05:15:38;8.10;;;7.15;;
48524;SDS011;34316;51.514;-0.178;2023-04-25T05:17:39;9.40;;;7.13;;
48524;SDS011;34316;51.514;-0.178;2023-04-25T05:19:41;9.70;;;7.53;;
48524;SDS011;34316;51.514;-0.178;2023-04-25T05:21:43;10.10;;;8.20;;
48524;SDS011;34316;51.514;-0.178;2023-04-25T05:23:44;10.60;;;8.48;;
48524;SDS011;34316;51.514;-0.178;2023-04-25T05:25:46;10.27;;;7.47;;
48524;SDS011;34316;51.514;-0.178;2023-04-25T05:27:48;11.45;;;8.30;;
48524;SDS011;34316;51.514;-0.178;2023-04-25T05:29:49;13.48;;;9.10;;
48524;SDS011;34316;51.514;-0.178;2023-04-25T05:31:51;10.48;;;8.88;;
48524;SDS011;34316;51.514;-0.178;2023-04-25T05:33:53;12.23;;;9.10;;
48524;SDS011;34316;51.514;-0.178;2023-04-25T05:35:54;18.02;;;9.93;;
48524;SDS011;34316;51.514;-0.178;2023-04-25T05:37:56;16.00;;;11.52;;
48524;SDS011;34316;51.514;-0.178;2023-04-25T05:39:57;22.27;;;13.15;;
48524;SDS011;34316;51.514;-0.178;2023-04-25T05:41:59;15.43;;;12.77;;
48524;SDS011;34316;51.514;-0.178;2023-04-25T05:44:02;14.90;;;12.25;;
48524;SDS011;34316;51.514;-0.178;2023-04-25T05:46:04;14.50;;;11.75;;
48524;SDS011;34316;51.514;-0.178;2023-04-25T05:48:06;16.35;;;12.10;;
48524;SDS011;34316;51.514;-0.178;2023-04-25T05:50:08;16.17;;;11.63;;
48524;SDS011;34316;51.514;-0.178;2023-04-25T05:52:10;14.73;;;11.23;;
48524;SDS011;34316;51.514;-0.178;2023-04-25T05:54:11;15.73;;;10.82;;
48524;SDS011;34316;51.514;-0.178;2023-04-25T05:56:13;14.65;;;10.35;;
48524;SDS011;34316;51.514;-0.178;2023-04-25T05:58:15;12.02;;;9.65;;
48524;SDS011;34316;51.514;-0.178;2023-04-25T06:00:16;15.48;;;9.23;;
48524;SDS011;34316;51.514;-0.178;2023-04-25T06:02:20;15.10;;;10.00;;
48524;SDS011;34316;51.514;-0.178;2023-04-25T06:04:22;11.50;;;9.20;;
48524;SDS011;34316;51.514;-0.178;2023-04-25T06:06:25;12.23;;;8.90;;
48524;SDS011;34316;51.514;-0.178;2023-04-25T06:08:28;10.82;;;8.80;;
48524;SDS011;34316;51.514;-0.178;2023-04-25T06:10:29;11.40;;;9.10;;
48524;SDS011;34316;51.514;-0.178;2023-04-25T06:12:31;13.48;;;8.93;;
48524;SDS011;34316;51.514;-0.178;2023-04-25T06:14:34;17.13;;;9.67;;
48524;SDS011;34316;51.514;-0.178;2023-04-25T06:16:36;12.23;;;9.02;;
48524;SDS011;34316;51.514;-0.178;2023-04-25T06:18:37;14.10;;;9.52;;
48524;SDS011;34316;51.514;-0.178;2023-04-25T06:20:39;12.05;;;9.55;;
48524;SDS011;34316;51.514;-0.178;2023-04-25T06:22:41;14.52;;;9.82;;
48524;SDS011;34316;51.514;-0.178;2023-04-25T06:24:42;12.63;;;9.30;;
48524;SDS011;34316;51.514;-0.178;2023-04-25T06:26:44;11.75;;;9.40;;
48524;SDS011;34316;51.514;-0.178;2023-04-25T06:28:46;16.35;;;9.35;;
48524;SDS011;34316;51.514;-0.178;2023-04-25T06:30:48;15.45;;;11.43;;
48524;SDS011;34316;51.514;-0.178;2023-04-25T06:32:49;12.73;;;9.88;;
48524;SDS011;34316;51.514;-0.178;2023-04-25T06:34:51;11.98;;;8.10;;
48524;SDS011;34316;51.514;-0.178;2023-04-25T06:36:52;13.40;;;9.32;;
48524;SDS011;34316;51.514;-0.178;2023-04-25T06:38:54;7.97;;;6.75;;
48524;SDS011;34316;51.514;-0.178;2023-04-25T06:40:56;9.82;;;7.20;;
48524;SDS011;34316;51.514;-0.178;2023-04-25T06:42:58;10.30;;;7.18;;
48524;SDS011;34316;51.514;-0.178;2023-04-25T06:44:59;9.75;;;7.00;;
48524;SDS011;34316;51.514;-0.178;2023-04-25T06:47:01;9.05;;;6.53;;
48524;SDS011;34316;51.514;-0.178;2023-04-25T06:49:03;8.95;;;6.35;;
48524;SDS011;34316;51.514;-0.178;2023-04-25T06:51:04;9.95;;;7.35;;
48524;SDS011;34316;51.514;-0.178;2023-04-25T06:53:06;8.55;;;6.47;;
48524;SDS011;34316;51.514;-0.178;2023-04-25T06:55:09;10.82;;;6.65;;
48524;SDS011;34316;51.514;-0.178;2023-04-25T06:57:11;7.18;;;5.43;;
48524;SDS011;34316;51.514;-0.178;2023-04-25T06:59:13;8.82;;;6.78;;
48524;SDS011;34316;51.514;-0.178;2023-04-25T07:01:14;7.85;;;5.88;;
48524;SDS011;34316;51.514;-0.178;2023-04-25T07:03:16;8.05;;;5.80;;
48524;SDS011;34316;51.514;-0.178;2023-04-25T07:05:18;8.40;;;5.97;;
48524;SDS011;34316;51.514;-0.178;2023-04-25T07:07:20;9.27;;;6.35;;
48524;SDS011;34316;51.514;-0.178;2023-04-25T07:09:22;9.75;;;6.25;;
48524;SDS011;34316;51.514;-0.178;2023-04-25T07:11:23;7.10;;;5.93;;
48524;SDS011;34316;51.514;-0.178;2023-04-25T07:13:25;11.18;;;7.00;;
48524;SDS011;34316;51.514;-0.178;2023-04-25T07:15:27;11.20;;;6.97;;
48524;SDS011;34316;51.514;-0.178;2023-04-25T07:17:28;11.68;;;8.90;;
48524;SDS011;34316;51.514;-0.178;2023-04-25T07:19:30;11.68;;;7.70;;
48524;SDS011;34316;51.514;-0.178;2023-04-25T07:21:32;12.35;;;6.63;;
48524;SDS011;34316;51.514;-0.178;2023-04-25T07:23:34;8.52;;;6.55;;
48524;SDS011;34316;51.514;-0.178;2023-04-25T07:25:35;8.30;;;6.32;;
48524;SDS011;34316;51.514;-0.178;2023-04-25T07:27:37;13.02;;;6.82;;
48524;SDS011;34316;51.514;-0.178;2023-04-25T07:29:40;9.85;;;6.47;;
48524;SDS011;34316;51.514;-0.178;2023-04-25T07:31:41;11.50;;;7.25;;
48524;SDS011;34316;51.514;-0.178;2023-04-25T07:33:44;12.90;;;6.53;;
48524;SDS011;34316;51.514;-0.178;2023-04-25T07:35:49;11.95;;;6.68;;
48524;SDS011;34316;51.514;-0.178;2023-04-25T07:37:51;11.18;;;6.85;;
48524;SDS011;34316;51.514;-0.178;2023-04-25T07:39:53;10.77;;;7.38;;
48524;SDS011;34316;51.514;-0.178;2023-04-25T07:41:54;12.80;;;7.25;;
48524;SDS011;34316;51.514;-0.178;2023-04-25T07:43:56;12.73;;;7.15;;
48524;SDS011;34316;51.514;-0.178;2023-04-25T07:45:57;12.07;;;7.25;;
48524;SDS011;34316;51.514;-0.178;2023-04-25T07:47:59;9.10;;;6.40;;
48524;SDS011;34316;51.514;-0.178;2023-04-25T07:50:02;9.25;;;6.50;;
48524;SDS011;34316;51.514;-0.178;2023-04-25T07:52:04;16.35;;;7.25;;
48524;SDS011;34316;51.514;-0.178;2023-04-25T07:54:07;8.70;;;6.43;;
48524;SDS011;34316;51.514;-0.178;2023-04-25T07:56:09;10.85;;;6.55;;
48524;SDS011;34316;51.514;-0.178;2023-04-25T07:58:11;12.98;;;6.32;;
48524;SDS011;34316;51.514;-0.178;2023-04-25T08:00:13;19.75;;;10.05;;
48524;SDS011;34316;51.514;-0.178;2023-04-25T08:02:16;17.05;;;12.15;;
48524;SDS011;34316;51.514;-0.178;2023-04-25T08:04:18;10.38;;;6.90;;
48524;SDS011;34316;51.514;-0.178;2023-04-25T08:06:20;15.05;;;7.00;;
48524;SDS011;34316;51.514;-0.178;2023-04-25T08:08:22;17.88;;;7.28;;
48524;SDS011;34316;51.514;-0.178;2023-04-25T08:10:23;10.57;;;6.25;;
48524;SDS011;34316;51.514;-0.178;2023-04-25T08:12:25;10.55;;;6.53;;
48524;SDS011;34316;51.514;-0.178;2023-04-25T08:14:27;11.50;;;6.57;;
48524;SDS011;34316;51.514;-0.178;2023-04-25T08:16:30;8.35;;;6.75;;
48524;SDS011;34316;51.514;-0.178;2023-04-25T08:18:32;12.50;;;6.75;;
48524;SDS011;34316;51.514;-0.178;2023-04-25T08:20:33;10.02;;;5.53;;
48524;SDS011;34316;51.514;-0.178;2023-04-25T08:22:35;11.77;;;6.13;;
48524;SDS011;34316;51.514;-0.178;2023-04-25T08:24:37;8.95;;;5.43;;
48524;SDS011;34316;51.514;-0.178;2023-04-25T08:26:39;8.23;;;5.80;;
48524;SDS011;34316;51.514;-0.178;2023-04-25T08:28:42;9.48;;;5.82;;
48524;SDS011;34316;51.514;-0.178;2023-04-25T08:30:44;7.60;;;5.40;;
48524;SDS011;34316;51.514;-0.178;2023-04-25T08:32:45;13.77;;;8.30;;
48524;SDS011;34316;51.514;-0.178;2023-04-25T08:34:47;9.68;;;6.20;;
48524;SDS011;34316;51.514;-0.178;2023-04-25T08:36:49;11.95;;;6.40;;
48524;SDS011;34316;51.514;-0.178;2023-04-25T08:38:51;5.93;;;4.75;;
48524;SDS011;34316;51.514;-0.178;2023-04-25T08:40:55;9.60;;;5.00;;
48524;SDS011;34316;51.514;-0.178;2023-04-25T08:42:58;9.57;;;6.22;;
48524;SDS011;34316;51.514;-0.178;2023-04-25T08:45:01;14.98;;;5.82;;
48524;SDS011;34316;51.514;-0.178;2023-04-25T08:47:07;11.15;;;4.60;;
48524;SDS011;34316;51.514;-0.178;2023-04-25T08:49:09;8.00;;;4.70;;
48524;SDS011;34316;51.514;-0.178;2023-04-25T08:51:12;7.35;;;4.60;;
48524;SDS011;34316;51.514;-0.178;2023-04-25T08:53:27;7.35;;;4.57;;
48524;SDS011;34316;51.514;-0.178;2023-04-25T08:55:31;6.38;;;4.72;;
48524;SDS011;34316;51.514;-0.178;2023-04-25T08:57:33;8.68;;;4.40;;
48524;SDS011;34316;51.514;-0.178;2023-04-25T08:59:34;6.07;;;3.80;;
48524;SDS011;34316;51.514;-0.178;2023-04-25T09:01:39;4.93;;;3.17;;
48524;SDS011;34316;51.514;-0.178;2023-04-25T09:03:41;7.18;;;2.90;;
48524;SDS011;34316;51.514;-0.178;2023-04-25T09:05:43;8.85;;;2.90;;
48524;SDS011;34316;51.514;-0.178;2023-04-25T09:07:45;11.85;;;3.47;;
48524;SDS011;34316;51.514;-0.178;2023-04-25T09:09:50;5.90;;;2.58;;
48524;SDS011;34316;51.514;-0.178;2023-04-25T09:11:51;6.45;;;2.67;;
48524;SDS011;34316;51.514;-0.178;2023-04-25T09:16:14;7.97;;;4.57;;
48524;SDS011;34316;51.514;-0.178;2023-04-25T09:18:28;8.18;;;4.15;;
48524;SDS011;34316;51.514;-0.178;2023-04-25T09:20:31;7.38;;;4.35;;
48524;SDS011;34316;51.514;-0.178;2023-04-25T09:22:37;6.53;;;3.33;;
48524;SDS011;34316;51.514;-0.178;2023-04-25T09:24:43;5.97;;;3.95;;
48524;SDS011;34316;51.514;-0.178;2023-04-25T09:26:47;14.82;;;4.70;;
48524;SDS011;34316;51.514;-0.178;2023-04-25T09:28:49;7.30;;;3.88;;
48524;SDS011;34316;51.514;-0.178;2023-04-25T09:30:53;6.95;;;4.00;;
48524;SDS011;34316;51.514;-0.178;2023-04-25T09:32:56;8.95;;;4.40;;
48524;SDS011;34316;51.514;-0.178;2023-04-25T09:34:59;8.75;;;4.28;;
48524;SDS011;34316;51.514;-0.178;2023-04-25T09:37:01;6.57;;;4.10;;
48524;SDS011;34316;51.514;-0.178;2023-04-25T09:39:03;9.35;;;4.32;;
48524;SDS011;34316;51.514;-0.178;2023-04-25T09:41:21;5.40;;;3.75;;
48524;SDS011;34316;51.514;-0.178;2023-04-25T09:43:24;6.03;;;3.75;;
48524;SDS011;34316;51.514;-0.178;2023-04-25T09:45:29;6.90;;;2.75;;
48524;SDS011;34316;51.514;-0.178;2023-04-25T09:47:32;4.43;;;1.73;;
48524;SDS011;34316;51.514;-0.178;2023-04-25T09:49:39;4.05;;;1.63;;
48524;SDS011;34316;51.514;-0.178;2023-04-25T09:51:53;2.92;;;1.10;;
48524;SDS011;34316;51.514;-0.178;2023-04-25T09:53:58;1.45;;;0.90;;
48524;SDS011;34316;51.514;-0.178;2023-04-25T09:56:00;4.00;;;1.35;;
48524;SDS011;34316;51.514;-0.178;2023-04-25T09:58:04;1.85;;;1.10;;
48524;SDS011;34316;51.514;-0.178;2023-04-25T10:00:09;7.47;;;2.03;;
48524;SDS011;34316;51.514;-0.178;2023-04-25T10:02:17;3.90;;;2.00;;
48524;SDS011;34316;51.514;-0.178;2023-04-25T10:04:22;7.30;;;2.13;;
48524;SDS011;34316;51.514;-0.178;2023-04-25T10:06:28;3.67;;;2.30;;
48524;SDS011;34316;51.514;-0.178;2023-04-25T10:08:34;6.00;;;2.40;;
48524;SDS011;34316;51.514;-0.178;2023-04-25T10:10:37;5.20;;;2.03;;
48524;SDS011;34316;51.514;-0.178;2023-04-25T10:12:41;3.80;;;2.05;;
48524;SDS011;34316;51.514;-0.178;2023-04-25T10:14:44;5.97;;;1.20;;
48524;SDS011;34316;51.514;-0.178;2023-04-25T10:16:47;1.55;;;0.98;;
48524;SDS011;34316;51.514;-0.178;2023-04-25T10:18:49;2.80;;;0.73;;
48524;SDS011;34316;51.514;-0.178;2023-04-25T10:20:52;2.10;;;1.00;;
48524;SDS011;34316;51.514;-0.178;2023-04-25T10:22:58;2.30;;;1.00;;
48524;SDS011;34316;51.514;-0.178;2023-04-25T10:25:06;1.65;;;0.90;;
48524;SDS011;34316;51.514;-0.178;2023-04-25T10:27:09;2.03;;;1.10;;
48524;SDS011;34316;51.514;-0.178;2023-04-25T10:29:12;3.75;;;0.98;;
48524;SDS011;34316;51.514;-0.178;2023-04-25T10:31:13;2.25;;;1.13;;
48524;SDS011;34316;51.514;-0.178;2023-04-25T10:33:17;4.97;;;0.93;;
48524;SDS011;34316;51.514;-0.178;2023-04-25T10:35:26;2.38;;;0.95;;
48524;SDS011;34316;51.514;-0.178;2023-04-25T10:37:29;1.30;;;0.65;;
48524;SDS011;34316;51.514;-0.178;2023-04-25T10:39:31;1.53;;;0.80;;
48524;SDS011;34316;51.514;-0.178;2023-04-25T10:41:47;3.15;;;1.45;;
48524;SDS011;34316;51.514;-0.178;2023-04-25T10:43:49;3.85;;;2.05;;
48524;SDS011;34316;51.514;-0.178;2023-04-25T10:45:52;3.73;;;1.40;;
48524;SDS011;34316;51.514;-0.178;2023-04-25T10:47:54;3.33;;;1.55;;
48524;SDS011;34316;51.514;-0.178;2023-04-25T10:49:56;3.50;;;1.73;;
48524;SDS011;34316;51.514;-0.178;2023-04-25T10:52:24;4.38;;;2.33;;
48524;SDS011;34316;51.514;-0.178;2023-04-25T10:54:26;6.30;;;2.15;;
48524;SDS011;34316;51.514;-0.178;2023-04-25T10:58:46;1.60;;;0.70;;
48524;SDS011;34316;51.514;-0.178;2023-04-25T11:00:51;1.02;;;0.60;;
48524;SDS011;34316;51.514;-0.178;2023-04-25T11:02:58;5.63;;;1.10;;
48524;SDS011;34316;51.514;-0.178;2023-04-25T11:05:00;1.88;;;0.98;;
48524;SDS011;34316;51.514;-0.178;2023-04-25T11:09:09;2.70;;;1.02;;
48524;SDS011;34316;51.514;-0.178;2023-04-25T11:11:14;3.03;;;1.15;;
48524;SDS011;34316;51.514;-0.178;2023-04-25T11:13:19;2.45;;;1.33;;
48524;SDS011;34316;51.514;-0.178;2023-04-25T11:15:21;1.77;;;0.93;;
48524;SDS011;34316;51.514;-0.178;2023-04-25T11:17:24;1.50;;;0.80;;
48524;SDS011;34316;51.514;-0.178;2023-04-25T11:19:27;3.00;;;1.10;;
48524;SDS011;34316;51.514;-0.178;2023-04-25T11:21:29;1.95;;;1.20;;
48524;SDS011;34316;51.514;-0.178;2023-04-25T11:23:33;4.20;;;1.40;;
48524;SDS011;34316;51.514;-0.178;2023-04-25T11:25:34;4.10;;;1.67;;
48524;SDS011;34316;51.514;-0.178;2023-04-25T11:27:49;8.02;;;2.35;;
48524;SDS011;34316;51.514;-0.178;2023-04-25T11:29:52;3.30;;;1.77;;
48524;SDS011;34316;51.514;-0.178;2023-04-25T11:31:54;4.28;;;2.22;;
48524;SDS011;34316;51.514;-0.178;2023-04-25T11:33:59;5.25;;;1.73;;
48524;SDS011;34316;51.514;-0.178;2023-04-25T11:36:01;4.32;;;2.00;;
48524;SDS011;34316;51.514;-0.178;2023-04-25T11:38:03;3.90;;;1.35;;
48524;SDS011;34316;51.514;-0.178;2023-04-25T11:40:05;5.22;;;1.60;;
48524;SDS011;34316;51.514;-0.178;2023-04-25T11:42:08;4.60;;;1.70;;
48524;SDS011;34316;51.514;-0.178;2023-04-25T11:44:17;5.47;;;1.38;;
48524;SDS011;34316;51.514;-0.178;2023-04-25T11:46:19;3.35;;;1.30;;
48524;SDS011;34316;51.514;-0.178;2023-04-25T11:48:21;3.00;;;1.23;;
48524;SDS011;34316;51.514;-0.178;2023-04-25T11:50:26;2.47;;;1.02;;
48524;SDS011;34316;51.514;-0.178;2023-04-25T11:52:38;5.03;;;1.20;;
48524;SDS011;34316;51.514;-0.178;2023-04-25T11:54:41;2.65;;;1.10;;
48524;SDS011;34316;51.514;-0.178;2023-04-25T11:56:45;3.08;;;1.00;;
48524;SDS011;34316;51.514;-0.178;2023-04-25T11:58:54;1.27;;;0.90;;
48524;SDS011;34316;51.514;-0.178;2023-04-25T12:00:56;1.20;;;0.80;;
48524;SDS011;34316;51.514;-0.178;2023-04-25T12:03:00;2.97;;;1.40;;
48524;SDS011;34316;51.514;-0.178;2023-04-25T12:05:07;1.92;;;1.30;;
48524;SDS011;34316;51.514;-0.178;2023-04-25T12:07:30;4.65;;;1.52;;
48524;SDS011;34316;51.514;-0.178;2023-04-25T12:09:32;1.38;;;1.13;;
48524;SDS011;34316;51.514;-0.178;2023-04-25T12:14:11;2.30;;;1.00;;